Rome Heights, Illinois
Current Conditions -  °F | °C
As of 2:15 PM on Wednesday 26 Nov 2014 (Local Time) from KC75 Reporting Station
Overcast Overcast  
Wind Chill: -6°   Ceiling: 1400
Heat Index: -2°   Visibility: 7mi
Dew Point: -5°   Wind: 8mph
Humidity: 78%   Direction: 110°ESE
Pressure: 30.08"   Gusts: NA
Location:  40.915°N, 89.5303°W
Report Text: KC75 262015Z AUTO 11007KT 7SM OVC014 M02/M05 A3008 RMK AO2 T10161050
Loading
Personal Weather Stations






























Interactive Weather Map New forecast layout! Learn more

10-Day Weather Forecast

Advertisements
Track Severe Weather on mobile